<?xml version="1.0" encoding="UTF-8" standalone="no" ?>
<gpx xmlns="http://www.topografix.com/GPX/1/1" xmlns:xsi="http://www.w3.org/2001/XMLSchema-instance" xsi:schemaLocation="http://www.topografix.com/GPX/1/1 http://www.topografix.com/GPX/1/1/gpx.xsd" version="1.1" creator="VisuGPX - https://www.visugpx.com">
  <metadata>
    <name>Sur les traces des Tétras</name>
    <desc><![CDATA[Sentier pédestre autour de Saint-Lizier.]]></desc>
  </metadata>
  <trk>
    <name><![CDATA[Sentier 8/06/13]]></name>
    <trkseg>
      <trkpt lat="43.00173" lon="1.13774">
        <ele>456</ele>
        <time>2013-06-08T07:11:54.000Z</time>
      </trkpt>
      <trkpt lat="43.00175" lon="1.13779">
        <ele>446</ele>
        <time>2013-06-08T07:12:15.000Z</time>
      </trkpt>
      <trkpt lat="43.00179" lon="1.13788">
        <ele>445</ele>
        <time>2013-06-08T07:12:24.000Z</time>
      </trkpt>
      <trkpt lat="43.00185" lon="1.13792">
        <ele>445</ele>
        <time>2013-06-08T07:12:30.000Z</time>
      </trkpt>
      <trkpt lat="43.00189" lon="1.13804">
        <ele>444</ele>
        <time>2013-06-08T07:12:36.000Z</time>
      </trkpt>
      <trkpt lat="43.00191" lon="1.13812">
        <ele>440</ele>
        <time>2013-06-08T07:12:40.000Z</time>
      </trkpt>
      <trkpt lat="43.00192" lon="1.13822">
        <ele>435</ele>
        <time>2013-06-08T07:12:51.000Z</time>
      </trkpt>
      <trkpt lat="43.00193" lon="1.13833">
        <ele>436</ele>
        <time>2013-06-08T07:13:02.000Z</time>
      </trkpt>
      <trkpt lat="43.00193" lon="1.13839">
        <ele>435</ele>
        <time>2013-06-08T07:13:04.000Z</time>
      </trkpt>
      <trkpt lat="43.00195" lon="1.13846">
        <ele>432</ele>
        <time>2013-06-08T07:13:12.000Z</time>
      </trkpt>
      <trkpt lat="43.00195" lon="1.1386">
        <ele>429</ele>
        <time>2013-06-08T07:13:21.000Z</time>
      </trkpt>
      <trkpt lat="43.00197" lon="1.13873">
        <ele>428</ele>
        <time>2013-06-08T07:13:29.000Z</time>
      </trkpt>
      <trkpt lat="43.00207" lon="1.13898">
        <ele>428</ele>
        <time>2013-06-08T07:13:45.000Z</time>
      </trkpt>
      <trkpt lat="43.00209" lon="1.13906">
        <ele>428</ele>
        <time>2013-06-08T07:13:50.000Z</time>
      </trkpt>
      <trkpt lat="43.00214" lon="1.13922">
        <ele>426</ele>
        <time>2013-06-08T07:13:59.000Z</time>
      </trkpt>
      <trkpt lat="43.00221" lon="1.13956">
        <ele>424</ele>
        <time>2013-06-08T07:14:19.000Z</time>
      </trkpt>
      <trkpt lat="43.00219" lon="1.13981">
        <ele>425</ele>
        <time>2013-06-08T07:14:33.000Z</time>
      </trkpt>
      <trkpt lat="43.00203" lon="1.14036">
        <ele>423</ele>
        <time>2013-06-08T07:15:08.000Z</time>
      </trkpt>
      <trkpt lat="43.00179" lon="1.14086">
        <ele>428</ele>
        <time>2013-06-08T07:15:40.000Z</time>
      </trkpt>
      <trkpt lat="43.00178" lon="1.14088">
        <ele>428</ele>
        <time>2013-06-08T07:15:41.000Z</time>
      </trkpt>
      <trkpt lat="43.00173" lon="1.1412">
        <ele>427</ele>
        <time>2013-06-08T07:16:00.000Z</time>
      </trkpt>
      <trkpt lat="43.00173" lon="1.14129">
        <ele>428</ele>
        <time>2013-06-08T07:16:06.000Z</time>
      </trkpt>
      <trkpt lat="43.00171" lon="1.14147">
        <ele>427</ele>
        <time>2013-06-08T07:16:16.000Z</time>
      </trkpt>
      <trkpt lat="43.00165" lon="1.14144">
        <ele>428</ele>
        <time>2013-06-08T07:16:24.000Z</time>
      </trkpt>
      <trkpt lat="43.0015" lon="1.14134">
        <ele>428</ele>
        <time>2013-06-08T07:16:41.000Z</time>
      </trkpt>
      <trkpt lat="43.00143" lon="1.14138">
        <ele>430</ele>
        <time>2013-06-08T07:16:47.000Z</time>
      </trkpt>
      <trkpt lat="43.00138" lon="1.14141">
        <ele>430</ele>
        <time>2013-06-08T07:16:53.000Z</time>
      </trkpt>
      <trkpt lat="43.00116" lon="1.14165">
        <ele>431</ele>
        <time>2013-06-08T07:17:23.000Z</time>
      </trkpt>
      <trkpt lat="43.0011" lon="1.1417">
        <ele>438</ele>
        <time>2013-06-08T07:18:21.000Z</time>
      </trkpt>
      <trkpt lat="43.00107" lon="1.14177">
        <ele>439</ele>
        <time>2013-06-08T07:18:29.000Z</time>
      </trkpt>
      <trkpt lat="43.00104" lon="1.14184">
        <ele>440</ele>
        <time>2013-06-08T07:18:40.000Z</time>
      </trkpt>
      <trkpt lat="43.00098" lon="1.14188">
        <ele>442</ele>
        <time>2013-06-08T07:18:48.000Z</time>
      </trkpt>
      <trkpt lat="43.00083" lon="1.14196">
        <ele>448</ele>
        <time>2013-06-08T07:19:14.000Z</time>
      </trkpt>
      <trkpt lat="43.00066" lon="1.14213">
        <ele>446</ele>
        <time>2013-06-08T07:19:46.000Z</time>
      </trkpt>
      <trkpt lat="43.00059" lon="1.14222">
        <ele>446</ele>
        <time>2013-06-08T07:19:55.000Z</time>
      </trkpt>
      <trkpt lat="43.00053" lon="1.14233">
        <ele>446</ele>
        <time>2013-06-08T07:20:05.000Z</time>
      </trkpt>
      <trkpt lat="43.00047" lon="1.14247">
        <ele>449</ele>
        <time>2013-06-08T07:20:20.000Z</time>
      </trkpt>
      <trkpt lat="43.00044" lon="1.14256">
        <ele>450</ele>
        <time>2013-06-08T07:20:27.000Z</time>
      </trkpt>
      <trkpt lat="43.00043" lon="1.14263">
        <ele>452</ele>
        <time>2013-06-08T07:20:34.000Z</time>
      </trkpt>
      <trkpt lat="43.00039" lon="1.14282">
        <ele>453</ele>
        <time>2013-06-08T07:20:51.000Z</time>
      </trkpt>
      <trkpt lat="43.00033" lon="1.143">
        <ele>451</ele>
        <time>2013-06-08T07:21:06.000Z</time>
      </trkpt>
      <trkpt lat="43.00028" lon="1.1431">
        <ele>453</ele>
        <time>2013-06-08T07:21:14.000Z</time>
      </trkpt>
      <trkpt lat="43.00024" lon="1.14321">
        <ele>455</ele>
        <time>2013-06-08T07:21:22.000Z</time>
      </trkpt>
      <trkpt lat="43.00021" lon="1.14329">
        <ele>455</ele>
        <time>2013-06-08T07:21:28.000Z</time>
      </trkpt>
      <trkpt lat="43.00018" lon="1.14337">
        <ele>456</ele>
        <time>2013-06-08T07:21:34.000Z</time>
      </trkpt>
      <trkpt lat="43.00015" lon="1.14343">
        <ele>457</ele>
        <time>2013-06-08T07:21:40.000Z</time>
      </trkpt>
      <trkpt lat="43.00008" lon="1.14356">
        <ele>459</ele>
        <time>2013-06-08T07:21:53.000Z</time>
      </trkpt>
      <trkpt lat="42.9998" lon="1.14401">
        <ele>463</ele>
        <time>2013-06-08T07:22:40.000Z</time>
      </trkpt>
      <trkpt lat="42.99969" lon="1.14421">
        <ele>469</ele>
        <time>2013-06-08T07:23:00.000Z</time>
      </trkpt>
      <trkpt lat="42.99947" lon="1.14455">
        <ele>479</ele>
        <time>2013-06-08T07:23:40.000Z</time>
      </trkpt>
      <trkpt lat="42.99939" lon="1.14464">
        <ele>479</ele>
        <time>2013-06-08T07:23:41.000Z</time>
      </trkpt>
      <trkpt lat="42.99935" lon="1.14471">
        <ele>479</ele>
        <time>2013-06-08T07:24:11.000Z</time>
      </trkpt>
      <trkpt lat="42.99927" lon="1.14479">
        <ele>477</ele>
        <time>2013-06-08T07:24:27.000Z</time>
      </trkpt>
      <trkpt lat="42.99907" lon="1.14499">
        <ele>475</ele>
        <time>2013-06-08T07:24:49.000Z</time>
      </trkpt>
      <trkpt lat="42.99888" lon="1.14517">
        <ele>468</ele>
        <time>2013-06-08T07:25:13.000Z</time>
      </trkpt>
      <trkpt lat="42.99883" lon="1.1452">
        <ele>470</ele>
        <time>2013-06-08T07:25:17.000Z</time>
      </trkpt>
      <trkpt lat="42.99861" lon="1.14536">
        <ele>470</ele>
        <time>2013-06-08T07:25:39.000Z</time>
      </trkpt>
      <trkpt lat="42.99846" lon="1.14562">
        <ele>470</ele>
        <time>2013-06-08T07:26:00.000Z</time>
      </trkpt>
      <trkpt lat="42.99839" lon="1.14583">
        <ele>468</ele>
        <time>2013-06-08T07:26:14.000Z</time>
      </trkpt>
      <trkpt lat="42.9984" lon="1.14596">
        <ele>470</ele>
        <time>2013-06-08T07:26:23.000Z</time>
      </trkpt>
      <trkpt lat="42.99843" lon="1.14613">
        <ele>474</ele>
        <time>2013-06-08T07:26:36.000Z</time>
      </trkpt>
      <trkpt lat="42.99844" lon="1.14626">
        <ele>475</ele>
        <time>2013-06-08T07:26:45.000Z</time>
      </trkpt>
      <trkpt lat="42.9984" lon="1.14642">
        <ele>477</ele>
        <time>2013-06-08T07:26:57.000Z</time>
      </trkpt>
      <trkpt lat="42.99834" lon="1.14657">
        <ele>478</ele>
        <time>2013-06-08T07:27:09.000Z</time>
      </trkpt>
      <trkpt lat="42.99831" lon="1.14664">
        <ele>477</ele>
        <time>2013-06-08T07:27:15.000Z</time>
      </trkpt>
      <trkpt lat="42.99828" lon="1.14672">
        <ele>478</ele>
        <time>2013-06-08T07:27:21.000Z</time>
      </trkpt>
      <trkpt lat="42.99823" lon="1.14671">
        <ele>478</ele>
        <time>2013-06-08T07:27:29.000Z</time>
      </trkpt>
      <trkpt lat="42.99821" lon="1.1466">
        <ele>479</ele>
        <time>2013-06-08T07:27:39.000Z</time>
      </trkpt>
      <trkpt lat="42.99814" lon="1.14619">
        <ele>484</ele>
        <time>2013-06-08T07:28:12.000Z</time>
      </trkpt>
      <trkpt lat="42.99807" lon="1.14615">
        <ele>487</ele>
        <time>2013-06-08T07:29:25.000Z</time>
      </trkpt>
      <trkpt lat="42.9981" lon="1.14609">
        <ele>485</ele>
        <time>2013-06-08T07:29:32.000Z</time>
      </trkpt>
      <trkpt lat="42.9981" lon="1.14601">
        <ele>484</ele>
        <time>2013-06-08T07:29:39.000Z</time>
      </trkpt>
      <trkpt lat="42.99797" lon="1.14577">
        <ele>485</ele>
        <time>2013-06-08T07:30:00.000Z</time>
      </trkpt>
      <trkpt lat="42.99792" lon="1.14578">
        <ele>487</ele>
        <time>2013-06-08T07:30:08.000Z</time>
      </trkpt>
      <trkpt lat="42.99788" lon="1.14594">
        <ele>490</ele>
        <time>2013-06-08T07:30:20.000Z</time>
      </trkpt>
      <trkpt lat="42.99778" lon="1.14617">
        <ele>493</ele>
        <time>2013-06-08T07:30:38.000Z</time>
      </trkpt>
      <trkpt lat="42.99763" lon="1.14626">
        <ele>493</ele>
        <time>2013-06-08T07:30:53.000Z</time>
      </trkpt>
      <trkpt lat="42.99757" lon="1.14636">
        <ele>496</ele>
        <time>2013-06-08T07:31:03.000Z</time>
      </trkpt>
      <trkpt lat="42.99745" lon="1.14654">
        <ele>498</ele>
        <time>2013-06-08T07:31:21.000Z</time>
      </trkpt>
      <trkpt lat="42.99723" lon="1.14679">
        <ele>497</ele>
        <time>2013-06-08T07:31:47.000Z</time>
      </trkpt>
      <trkpt lat="42.9971" lon="1.1469">
        <ele>496</ele>
        <time>2013-06-08T07:32:02.000Z</time>
      </trkpt>
      <trkpt lat="42.99691" lon="1.14707">
        <ele>498</ele>
        <time>2013-06-08T07:32:25.000Z</time>
      </trkpt>
      <trkpt lat="42.99691" lon="1.14714">
        <ele>500</ele>
        <time>2013-06-08T07:32:43.000Z</time>
      </trkpt>
      <trkpt lat="42.99686" lon="1.14714">
        <ele>491</ele>
        <time>2013-06-08T07:33:25.000Z</time>
      </trkpt>
      <trkpt lat="42.99672" lon="1.1473">
        <ele>495</ele>
        <time>2013-06-08T07:33:41.000Z</time>
      </trkpt>
      <trkpt lat="42.99665" lon="1.14791">
        <ele>499</ele>
        <time>2013-06-08T07:34:24.000Z</time>
      </trkpt>
      <trkpt lat="42.99665" lon="1.14792">
        <ele>499</ele>
        <time>2013-06-08T07:34:25.000Z</time>
      </trkpt>
      <trkpt lat="42.99665" lon="1.14793">
        <ele>499</ele>
        <time>2013-06-08T07:34:26.000Z</time>
      </trkpt>
      <trkpt lat="42.99664" lon="1.14801">
        <ele>499</ele>
        <time>2013-06-08T07:34:31.000Z</time>
      </trkpt>
      <trkpt lat="42.9966" lon="1.14835">
        <ele>497</ele>
        <time>2013-06-08T07:34:49.000Z</time>
      </trkpt>
      <trkpt lat="42.99657" lon="1.14852">
        <ele>496</ele>
        <time>2013-06-08T07:35:00.000Z</time>
      </trkpt>
      <trkpt lat="42.99657" lon="1.1486">
        <ele>494</ele>
        <time>2013-06-08T07:35:06.000Z</time>
      </trkpt>
      <trkpt lat="42.99656" lon="1.14882">
        <ele>494</ele>
        <time>2013-06-08T07:35:21.000Z</time>
      </trkpt>
      <trkpt lat="42.99655" lon="1.14891">
        <ele>496</ele>
        <time>2013-06-08T07:35:27.000Z</time>
      </trkpt>
      <trkpt lat="42.99649" lon="1.14911">
        <ele>497</ele>
        <time>2013-06-08T07:35:41.000Z</time>
      </trkpt>
      <trkpt lat="42.99641" lon="1.1493">
        <ele>500</ele>
        <time>2013-06-08T07:35:54.000Z</time>
      </trkpt>
      <trkpt lat="42.9963" lon="1.14946">
        <ele>505</ele>
        <time>2013-06-08T07:36:06.000Z</time>
      </trkpt>
      <trkpt lat="42.99623" lon="1.1496">
        <ele>507</ele>
        <time>2013-06-08T07:36:17.000Z</time>
      </trkpt>
      <trkpt lat="42.9962" lon="1.1498">
        <ele>507</ele>
        <time>2013-06-08T07:36:31.000Z</time>
      </trkpt>
      <trkpt lat="42.9962" lon="1.14992">
        <ele>506</ele>
        <time>2013-06-08T07:36:50.000Z</time>
      </trkpt>
      <trkpt lat="42.99623" lon="1.14999">
        <ele>506</ele>
        <time>2013-06-08T07:36:56.000Z</time>
      </trkpt>
      <trkpt lat="42.99637" lon="1.15009">
        <ele>508</ele>
        <time>2013-06-08T07:37:11.000Z</time>
      </trkpt>
      <trkpt lat="42.99651" lon="1.15016">
        <ele>507</ele>
        <time>2013-06-08T07:37:25.000Z</time>
      </trkpt>
      <trkpt lat="42.99691" lon="1.15029">
        <ele>511</ele>
        <time>2013-06-08T07:38:01.000Z</time>
      </trkpt>
      <trkpt lat="42.99707" lon="1.1503">
        <ele>505</ele>
        <time>2013-06-08T07:38:17.000Z</time>
      </trkpt>
      <trkpt lat="42.9974" lon="1.15034">
        <ele>496</ele>
        <time>2013-06-08T07:38:47.000Z</time>
      </trkpt>
      <trkpt lat="42.99745" lon="1.15038">
        <ele>497</ele>
        <time>2013-06-08T07:38:52.000Z</time>
      </trkpt>
      <trkpt lat="42.99756" lon="1.15047">
        <ele>502</ele>
        <time>2013-06-08T07:39:03.000Z</time>
      </trkpt>
      <trkpt lat="42.99767" lon="1.15039">
        <ele>506</ele>
        <time>2013-06-08T07:39:19.000Z</time>
      </trkpt>
      <trkpt lat="42.99773" lon="1.15036">
        <ele>505</ele>
        <time>2013-06-08T07:39:27.000Z</time>
      </trkpt>
      <trkpt lat="42.99805" lon="1.1502">
        <ele>507</ele>
        <time>2013-06-08T07:40:03.000Z</time>
      </trkpt>
      <trkpt lat="42.99817" lon="1.15014">
        <ele>507</ele>
        <time>2013-06-08T07:40:04.000Z</time>
      </trkpt>
      <trkpt lat="42.99819" lon="1.1501">
        <ele>507</ele>
        <time>2013-06-08T07:40:07.000Z</time>
      </trkpt>
      <trkpt lat="42.99822" lon="1.15002">
        <ele>506</ele>
        <time>2013-06-08T07:40:13.000Z</time>
      </trkpt>
      <trkpt lat="42.99825" lon="1.14985">
        <ele>503</ele>
        <time>2013-06-08T07:40:25.000Z</time>
      </trkpt>
      <trkpt lat="42.99832" lon="1.14978">
        <ele>503</ele>
        <time>2013-06-08T07:40:34.000Z</time>
      </trkpt>
      <trkpt lat="42.99837" lon="1.14975">
        <ele>505</ele>
        <time>2013-06-08T07:40:43.000Z</time>
      </trkpt>
      <trkpt lat="42.99839" lon="1.14991">
        <ele>504</ele>
        <time>2013-06-08T07:40:57.000Z</time>
      </trkpt>
      <trkpt lat="42.99841" lon="1.14986">
        <ele>509</ele>
        <time>2013-06-08T07:43:22.000Z</time>
      </trkpt>
      <trkpt lat="42.99841" lon="1.14982">
        <ele>508</ele>
        <time>2013-06-08T07:45:34.000Z</time>
      </trkpt>
      <trkpt lat="42.99843" lon="1.14974">
        <ele>510</ele>
        <time>2013-06-08T07:45:51.000Z</time>
      </trkpt>
      <trkpt lat="42.99837" lon="1.14964">
        <ele>507</ele>
        <time>2013-06-08T07:46:10.000Z</time>
      </trkpt>
      <trkpt lat="42.99834" lon="1.14953">
        <ele>506</ele>
        <time>2013-06-08T07:46:28.000Z</time>
      </trkpt>
      <trkpt lat="42.9983" lon="1.14937">
        <ele>505</ele>
        <time>2013-06-08T07:46:44.000Z</time>
      </trkpt>
      <trkpt lat="42.99831" lon="1.1492">
        <ele>501</ele>
        <time>2013-06-08T07:46:59.000Z</time>
      </trkpt>
      <trkpt lat="42.99834" lon="1.14909">
        <ele>498</ele>
        <time>2013-06-08T07:47:08.000Z</time>
      </trkpt>
      <trkpt lat="42.99846" lon="1.14873">
        <ele>495</ele>
        <time>2013-06-08T07:47:35.000Z</time>
      </trkpt>
      <trkpt lat="42.99852" lon="1.14854">
        <ele>490</ele>
        <time>2013-06-08T07:47:52.000Z</time>
      </trkpt>
      <trkpt lat="42.99855" lon="1.14848">
        <ele>490</ele>
        <time>2013-06-08T07:48:06.000Z</time>
      </trkpt>
      <trkpt lat="42.9986" lon="1.14836">
        <ele>491</ele>
        <time>2013-06-08T07:48:16.000Z</time>
      </trkpt>
      <trkpt lat="42.99869" lon="1.14813">
        <ele>485</ele>
        <time>2013-06-08T07:48:34.000Z</time>
      </trkpt>
      <trkpt lat="42.99871" lon="1.14794">
        <ele>482</ele>
        <time>2013-06-08T07:48:50.000Z</time>
      </trkpt>
      <trkpt lat="42.99876" lon="1.14776">
        <ele>483</ele>
        <time>2013-06-08T07:49:00.000Z</time>
      </trkpt>
      <trkpt lat="42.99878" lon="1.14769">
        <ele>483</ele>
        <time>2013-06-08T07:49:05.000Z</time>
      </trkpt>
      <trkpt lat="42.99882" lon="1.14761">
        <ele>483</ele>
        <time>2013-06-08T07:49:11.000Z</time>
      </trkpt>
      <trkpt lat="42.99886" lon="1.14754">
        <ele>484</ele>
        <time>2013-06-08T07:49:17.000Z</time>
      </trkpt>
      <trkpt lat="42.99901" lon="1.14722">
        <ele>476</ele>
        <time>2013-06-08T07:49:40.000Z</time>
      </trkpt>
      <trkpt lat="42.99905" lon="1.14704">
        <ele>476</ele>
        <time>2013-06-08T07:49:51.000Z</time>
      </trkpt>
      <trkpt lat="42.99911" lon="1.14693">
        <ele>477</ele>
        <time>2013-06-08T07:50:00.000Z</time>
      </trkpt>
      <trkpt lat="42.99917" lon="1.14692">
        <ele>481</ele>
        <time>2013-06-08T07:50:14.000Z</time>
      </trkpt>
      <trkpt lat="42.99918" lon="1.14699">
        <ele>478</ele>
        <time>2013-06-08T07:50:32.000Z</time>
      </trkpt>
      <trkpt lat="42.99915" lon="1.14709">
        <ele>475</ele>
        <time>2013-06-08T07:50:49.000Z</time>
      </trkpt>
      <trkpt lat="42.99918" lon="1.1472">
        <ele>475</ele>
        <time>2013-06-08T07:51:17.000Z</time>
      </trkpt>
      <trkpt lat="42.99922" lon="1.14726">
        <ele>475</ele>
        <time>2013-06-08T07:51:28.000Z</time>
      </trkpt>
      <trkpt lat="42.99928" lon="1.14729">
        <ele>478</ele>
        <time>2013-06-08T07:51:49.000Z</time>
      </trkpt>
      <trkpt lat="42.99937" lon="1.14731">
        <ele>477</ele>
        <time>2013-06-08T07:52:01.000Z</time>
      </trkpt>
      <trkpt lat="42.99947" lon="1.14737">
        <ele>476</ele>
        <time>2013-06-08T07:52:31.000Z</time>
      </trkpt>
      <trkpt lat="42.9995" lon="1.14741">
        <ele>481</ele>
        <time>2013-06-08T07:52:51.000Z</time>
      </trkpt>
      <trkpt lat="42.99961" lon="1.14745">
        <ele>477</ele>
        <time>2013-06-08T07:54:02.000Z</time>
      </trkpt>
      <trkpt lat="42.99965" lon="1.14751">
        <ele>469</ele>
        <time>2013-06-08T07:54:14.000Z</time>
      </trkpt>
      <trkpt lat="42.99986" lon="1.14769">
        <ele>469</ele>
        <time>2013-06-08T07:54:44.000Z</time>
      </trkpt>
      <trkpt lat="42.99992" lon="1.14776">
        <ele>466</ele>
        <time>2013-06-08T07:54:55.000Z</time>
      </trkpt>
      <trkpt lat="43.00002" lon="1.14787">
        <ele>468</ele>
        <time>2013-06-08T07:55:24.000Z</time>
      </trkpt>
      <trkpt lat="43.00006" lon="1.14792">
        <ele>477</ele>
        <time>2013-06-08T07:55:28.000Z</time>
      </trkpt>
      <trkpt lat="43.0001" lon="1.14797">
        <ele>473</ele>
        <time>2013-06-08T07:55:30.000Z</time>
      </trkpt>
      <trkpt lat="43.00012" lon="1.14804">
        <ele>473</ele>
        <time>2013-06-08T07:55:36.000Z</time>
      </trkpt>
      <trkpt lat="43.00022" lon="1.14827">
        <ele>475</ele>
        <time>2013-06-08T07:55:55.000Z</time>
      </trkpt>
      <trkpt lat="43.00026" lon="1.14833">
        <ele>474</ele>
        <time>2013-06-08T07:56:09.000Z</time>
      </trkpt>
      <trkpt lat="43.00033" lon="1.14841">
        <ele>467</ele>
        <time>2013-06-08T07:56:19.000Z</time>
      </trkpt>
      <trkpt lat="43.00036" lon="1.14853">
        <ele>462</ele>
        <time>2013-06-08T07:56:28.000Z</time>
      </trkpt>
      <trkpt lat="43.00038" lon="1.14861">
        <ele>459</ele>
        <time>2013-06-08T07:56:33.000Z</time>
      </trkpt>
      <trkpt lat="43.00044" lon="1.14865">
        <ele>459</ele>
        <time>2013-06-08T07:56:37.000Z</time>
      </trkpt>
      <trkpt lat="43.00053" lon="1.14865">
        <ele>459</ele>
        <time>2013-06-08T07:56:43.000Z</time>
      </trkpt>
      <trkpt lat="43.00098" lon="1.14861">
        <ele>462</ele>
        <time>2013-06-08T07:57:18.000Z</time>
      </trkpt>
      <trkpt lat="43.001" lon="1.14861">
        <ele>462</ele>
        <time>2013-06-08T07:57:19.000Z</time>
      </trkpt>
      <trkpt lat="43.00105" lon="1.14862">
        <ele>461</ele>
        <time>2013-06-08T07:57:23.000Z</time>
      </trkpt>
      <trkpt lat="43.00111" lon="1.14867">
        <ele>460</ele>
        <time>2013-06-08T07:57:29.000Z</time>
      </trkpt>
      <trkpt lat="43.00113" lon="1.14876">
        <ele>459</ele>
        <time>2013-06-08T07:57:35.000Z</time>
      </trkpt>
      <trkpt lat="43.00114" lon="1.14885">
        <ele>460</ele>
        <time>2013-06-08T07:57:41.000Z</time>
      </trkpt>
      <trkpt lat="43.00112" lon="1.14938">
        <ele>458</ele>
        <time>2013-06-08T07:58:19.000Z</time>
      </trkpt>
      <trkpt lat="43.00124" lon="1.14941">
        <ele>467</ele>
        <time>2013-06-08T07:58:46.000Z</time>
      </trkpt>
      <trkpt lat="43.00128" lon="1.14945">
        <ele>468</ele>
        <time>2013-06-08T07:59:08.000Z</time>
      </trkpt>
      <trkpt lat="43.00133" lon="1.14948">
        <ele>445</ele>
        <time>2013-06-08T07:59:52.000Z</time>
      </trkpt>
      <trkpt lat="43.00136" lon="1.1495">
        <ele>464</ele>
        <time>2013-06-08T08:00:53.000Z</time>
      </trkpt>
      <trkpt lat="43.00144" lon="1.1495">
        <ele>464</ele>
        <time>2013-06-08T08:01:01.000Z</time>
      </trkpt>
      <trkpt lat="43.00156" lon="1.14948">
        <ele>467</ele>
        <time>2013-06-08T08:01:19.000Z</time>
      </trkpt>
      <trkpt lat="43.00181" lon="1.14941">
        <ele>468</ele>
        <time>2013-06-08T08:01:47.000Z</time>
      </trkpt>
      <trkpt lat="43.0019" lon="1.14945">
        <ele>474</ele>
        <time>2013-06-08T08:01:57.000Z</time>
      </trkpt>
      <trkpt lat="43.00202" lon="1.14951">
        <ele>479</ele>
        <time>2013-06-08T08:02:08.000Z</time>
      </trkpt>
      <trkpt lat="43.00221" lon="1.14953">
        <ele>478</ele>
        <time>2013-06-08T08:02:28.000Z</time>
      </trkpt>
      <trkpt lat="43.00254" lon="1.14949">
        <ele>495</ele>
        <time>2013-06-08T08:03:27.000Z</time>
      </trkpt>
      <trkpt lat="43.0026" lon="1.14947">
        <ele>496</ele>
        <time>2013-06-08T08:03:35.000Z</time>
      </trkpt>
      <trkpt lat="43.00269" lon="1.14953">
        <ele>496</ele>
        <time>2013-06-08T08:03:43.000Z</time>
      </trkpt>
      <trkpt lat="43.00279" lon="1.14953">
        <ele>498</ele>
        <time>2013-06-08T08:03:53.000Z</time>
      </trkpt>
      <trkpt lat="43.00298" lon="1.14954">
        <ele>497</ele>
        <time>2013-06-08T08:04:14.000Z</time>
      </trkpt>
      <trkpt lat="43.00343" lon="1.14961">
        <ele>500</ele>
        <time>2013-06-08T08:04:49.000Z</time>
      </trkpt>
      <trkpt lat="43.00345" lon="1.14961">
        <ele>500</ele>
        <time>2013-06-08T08:04:50.000Z</time>
      </trkpt>
      <trkpt lat="43.00352" lon="1.1496">
        <ele>501</ele>
        <time>2013-06-08T08:04:56.000Z</time>
      </trkpt>
      <trkpt lat="43.00362" lon="1.14958">
        <ele>503</ele>
        <time>2013-06-08T08:05:05.000Z</time>
      </trkpt>
      <trkpt lat="43.00381" lon="1.14951">
        <ele>508</ele>
        <time>2013-06-08T08:05:58.000Z</time>
      </trkpt>
      <trkpt lat="43.0039" lon="1.14956">
        <ele>491</ele>
        <time>2013-06-08T08:08:25.000Z</time>
      </trkpt>
      <trkpt lat="43.00398" lon="1.1495">
        <ele>492</ele>
        <time>2013-06-08T08:08:31.000Z</time>
      </trkpt>
      <trkpt lat="43.00405" lon="1.14952">
        <ele>504</ele>
        <time>2013-06-08T08:09:24.000Z</time>
      </trkpt>
      <trkpt lat="43.00411" lon="1.1495">
        <ele>504</ele>
        <time>2013-06-08T08:09:33.000Z</time>
      </trkpt>
      <trkpt lat="43.00425" lon="1.14947">
        <ele>504</ele>
        <time>2013-06-08T08:09:48.000Z</time>
      </trkpt>
      <trkpt lat="43.00436" lon="1.14938">
        <ele>508</ele>
        <time>2013-06-08T08:10:12.000Z</time>
      </trkpt>
      <trkpt lat="43.00442" lon="1.14934">
        <ele>507</ele>
        <time>2013-06-08T08:10:18.000Z</time>
      </trkpt>
      <trkpt lat="43.00454" lon="1.14926">
        <ele>507</ele>
        <time>2013-06-08T08:10:30.000Z</time>
      </trkpt>
      <trkpt lat="43.00468" lon="1.14921">
        <ele>505</ele>
        <time>2013-06-08T08:10:42.000Z</time>
      </trkpt>
      <trkpt lat="43.00481" lon="1.1492">
        <ele>503</ele>
        <time>2013-06-08T08:10:54.000Z</time>
      </trkpt>
      <trkpt lat="43.00494" lon="1.14926">
        <ele>500</ele>
        <time>2013-06-08T08:11:08.000Z</time>
      </trkpt>
      <trkpt lat="43.00501" lon="1.14932">
        <ele>500</ele>
        <time>2013-06-08T08:11:15.000Z</time>
      </trkpt>
      <trkpt lat="43.0051" lon="1.14939">
        <ele>500</ele>
        <time>2013-06-08T08:11:24.000Z</time>
      </trkpt>
      <trkpt lat="43.00517" lon="1.14943">
        <ele>500</ele>
        <time>2013-06-08T08:11:29.000Z</time>
      </trkpt>
      <trkpt lat="43.00523" lon="1.1495">
        <ele>500</ele>
        <time>2013-06-08T08:11:35.000Z</time>
      </trkpt>
      <trkpt lat="43.00528" lon="1.14961">
        <ele>500</ele>
        <time>2013-06-08T08:11:43.000Z</time>
      </trkpt>
      <trkpt lat="43.00535" lon="1.14972">
        <ele>497</ele>
        <time>2013-06-08T08:11:55.000Z</time>
      </trkpt>
      <trkpt lat="43.00541" lon="1.14982">
        <ele>497</ele>
        <time>2013-06-08T08:12:05.000Z</time>
      </trkpt>
      <trkpt lat="43.00581" lon="1.15002">
        <ele>495</ele>
        <time>2013-06-08T08:12:40.000Z</time>
      </trkpt>
      <trkpt lat="43.00594" lon="1.15006">
        <ele>495</ele>
        <time>2013-06-08T08:12:55.000Z</time>
      </trkpt>
      <trkpt lat="43.00603" lon="1.15011">
        <ele>495</ele>
        <time>2013-06-08T08:13:03.000Z</time>
      </trkpt>
      <trkpt lat="43.00612" lon="1.15012">
        <ele>495</ele>
        <time>2013-06-08T08:13:12.000Z</time>
      </trkpt>
      <trkpt lat="43.00618" lon="1.15016">
        <ele>496</ele>
        <time>2013-06-08T08:13:20.000Z</time>
      </trkpt>
      <trkpt lat="43.00631" lon="1.15021">
        <ele>499</ele>
        <time>2013-06-08T08:13:31.000Z</time>
      </trkpt>
      <trkpt lat="43.00637" lon="1.15023">
        <ele>502</ele>
        <time>2013-06-08T08:13:36.000Z</time>
      </trkpt>
      <trkpt lat="43.00642" lon="1.15029">
        <ele>503</ele>
        <time>2013-06-08T08:13:44.000Z</time>
      </trkpt>
      <trkpt lat="43.00644" lon="1.15036">
        <ele>503</ele>
        <time>2013-06-08T08:13:51.000Z</time>
      </trkpt>
      <trkpt lat="43.00645" lon="1.15048">
        <ele>502</ele>
        <time>2013-06-08T08:14:03.000Z</time>
      </trkpt>
      <trkpt lat="43.00645" lon="1.15057">
        <ele>513</ele>
        <time>2013-06-08T08:15:08.000Z</time>
      </trkpt>
      <trkpt lat="43.00643" lon="1.15089">
        <ele>522</ele>
        <time>2013-06-08T08:15:15.000Z</time>
      </trkpt>
      <trkpt lat="43.00649" lon="1.15071">
        <ele>515</ele>
        <time>2013-06-08T08:15:37.000Z</time>
      </trkpt>
      <trkpt lat="43.00657" lon="1.15063">
        <ele>510</ele>
        <time>2013-06-08T08:15:53.000Z</time>
      </trkpt>
      <trkpt lat="43.0066" lon="1.1507">
        <ele>508</ele>
        <time>2013-06-08T08:16:03.000Z</time>
      </trkpt>
      <trkpt lat="43.00663" lon="1.15077">
        <ele>508</ele>
        <time>2013-06-08T08:16:10.000Z</time>
      </trkpt>
      <trkpt lat="43.00666" lon="1.15084">
        <ele>508</ele>
        <time>2013-06-08T08:16:16.000Z</time>
      </trkpt>
      <trkpt lat="43.0067" lon="1.15091">
        <ele>507</ele>
        <time>2013-06-08T08:16:22.000Z</time>
      </trkpt>
      <trkpt lat="43.00681" lon="1.15104">
        <ele>512</ele>
        <time>2013-06-08T08:16:43.000Z</time>
      </trkpt>
      <trkpt lat="43.00691" lon="1.15099">
        <ele>506</ele>
        <time>2013-06-08T08:16:55.000Z</time>
      </trkpt>
      <trkpt lat="43.00695" lon="1.15094">
        <ele>502</ele>
        <time>2013-06-08T08:17:02.000Z</time>
      </trkpt>
      <trkpt lat="43.00711" lon="1.15077">
        <ele>495</ele>
        <time>2013-06-08T08:17:23.000Z</time>
      </trkpt>
      <trkpt lat="43.0072" lon="1.15068">
        <ele>498</ele>
        <time>2013-06-08T08:17:32.000Z</time>
      </trkpt>
      <trkpt lat="43.00744" lon="1.15046">
        <ele>509</ele>
        <time>2013-06-08T08:17:51.000Z</time>
      </trkpt>
      <trkpt lat="43.00747" lon="1.15041">
        <ele>507</ele>
        <time>2013-06-08T08:18:02.000Z</time>
      </trkpt>
      <trkpt lat="43.00753" lon="1.15032">
        <ele>506</ele>
        <time>2013-06-08T08:18:10.000Z</time>
      </trkpt>
      <trkpt lat="43.0076" lon="1.15022">
        <ele>505</ele>
        <time>2013-06-08T08:18:20.000Z</time>
      </trkpt>
      <trkpt lat="43.00766" lon="1.15016">
        <ele>506</ele>
        <time>2013-06-08T08:18:26.000Z</time>
      </trkpt>
      <trkpt lat="43.00777" lon="1.15005">
        <ele>506</ele>
        <time>2013-06-08T08:18:37.000Z</time>
      </trkpt>
      <trkpt lat="43.00781" lon="1.14999">
        <ele>506</ele>
        <time>2013-06-08T08:18:43.000Z</time>
      </trkpt>
      <trkpt lat="43.00785" lon="1.14993">
        <ele>505</ele>
        <time>2013-06-08T08:18:50.000Z</time>
      </trkpt>
      <trkpt lat="43.00801" lon="1.14975">
        <ele>509</ele>
        <time>2013-06-08T08:19:14.000Z</time>
      </trkpt>
      <trkpt lat="43.00799" lon="1.14975">
        <ele>508</ele>
        <time>2013-06-08T08:19:50.000Z</time>
      </trkpt>
      <trkpt lat="43.00778" lon="1.14946">
        <ele>504</ele>
        <time>2013-06-08T08:20:16.000Z</time>
      </trkpt>
      <trkpt lat="43.00773" lon="1.14935">
        <ele>502</ele>
        <time>2013-06-08T08:20:24.000Z</time>
      </trkpt>
      <trkpt lat="43.00762" lon="1.14911">
        <ele>500</ele>
        <time>2013-06-08T08:20:41.000Z</time>
      </trkpt>
      <trkpt lat="43.00751" lon="1.14883">
        <ele>498</ele>
        <time>2013-06-08T08:20:57.000Z</time>
      </trkpt>
      <trkpt lat="43.00735" lon="1.1484">
        <ele>490</ele>
        <time>2013-06-08T08:21:28.000Z</time>
      </trkpt>
      <trkpt lat="43.00712" lon="1.14787">
        <ele>485</ele>
        <time>2013-06-08T08:22:00.000Z</time>
      </trkpt>
      <trkpt lat="43.00711" lon="1.14786">
        <ele>485</ele>
        <time>2013-06-08T08:22:01.000Z</time>
      </trkpt>
      <trkpt lat="43.00703" lon="1.14765">
        <ele>477</ele>
        <time>2013-06-08T08:22:57.000Z</time>
      </trkpt>
      <trkpt lat="43.00701" lon="1.14757">
        <ele>474</ele>
        <time>2013-06-08T08:23:04.000Z</time>
      </trkpt>
      <trkpt lat="43.00694" lon="1.14736">
        <ele>473</ele>
        <time>2013-06-08T08:23:18.000Z</time>
      </trkpt>
      <trkpt lat="43.00692" lon="1.14718">
        <ele>474</ele>
        <time>2013-06-08T08:23:38.000Z</time>
      </trkpt>
      <trkpt lat="43.00728" lon="1.1468">
        <ele>478</ele>
        <time>2013-06-08T08:24:12.000Z</time>
      </trkpt>
      <trkpt lat="43.00729" lon="1.14679">
        <ele>478</ele>
        <time>2013-06-08T08:24:13.000Z</time>
      </trkpt>
      <trkpt lat="43.00745" lon="1.14667">
        <ele>478</ele>
        <time>2013-06-08T08:24:25.000Z</time>
      </trkpt>
      <trkpt lat="43.00788" lon="1.14642">
        <ele>480</ele>
        <time>2013-06-08T08:25:00.000Z</time>
      </trkpt>
      <trkpt lat="43.00789" lon="1.14642">
        <ele>480</ele>
        <time>2013-06-08T08:25:01.000Z</time>
      </trkpt>
      <trkpt lat="43.00824" lon="1.14623">
        <ele>488</ele>
        <time>2013-06-08T08:25:33.000Z</time>
      </trkpt>
      <trkpt lat="43.0083" lon="1.14619">
        <ele>487</ele>
        <time>2013-06-08T08:25:50.000Z</time>
      </trkpt>
      <trkpt lat="43.00833" lon="1.14607">
        <ele>486</ele>
        <time>2013-06-08T08:25:59.000Z</time>
      </trkpt>
      <trkpt lat="43.00838" lon="1.14597">
        <ele>484</ele>
        <time>2013-06-08T08:26:07.000Z</time>
      </trkpt>
      <trkpt lat="43.00852" lon="1.14583">
        <ele>492</ele>
        <time>2013-06-08T08:26:25.000Z</time>
      </trkpt>
      <trkpt lat="43.0085" lon="1.14574">
        <ele>484</ele>
        <time>2013-06-08T08:26:30.000Z</time>
      </trkpt>
      <trkpt lat="43.0085" lon="1.14565">
        <ele>486</ele>
        <time>2013-06-08T08:26:34.000Z</time>
      </trkpt>
      <trkpt lat="43.00844" lon="1.14534">
        <ele>487</ele>
        <time>2013-06-08T08:26:55.000Z</time>
      </trkpt>
      <trkpt lat="43.00842" lon="1.1452">
        <ele>484</ele>
        <time>2013-06-08T08:27:04.000Z</time>
      </trkpt>
      <trkpt lat="43.00841" lon="1.14511">
        <ele>482</ele>
        <time>2013-06-08T08:27:10.000Z</time>
      </trkpt>
      <trkpt lat="43.00839" lon="1.14466">
        <ele>463</ele>
        <time>2013-06-08T08:29:07.000Z</time>
      </trkpt>
      <trkpt lat="43.00838" lon="1.1446">
        <ele>486</ele>
        <time>2013-06-08T08:30:29.000Z</time>
      </trkpt>
      <trkpt lat="43.00838" lon="1.14445">
        <ele>479</ele>
        <time>2013-06-08T08:30:59.000Z</time>
      </trkpt>
      <trkpt lat="43.00839" lon="1.14437">
        <ele>478</ele>
        <time>2013-06-08T08:31:06.000Z</time>
      </trkpt>
      <trkpt lat="43.0084" lon="1.14416">
        <ele>481</ele>
        <time>2013-06-08T08:31:19.000Z</time>
      </trkpt>
      <trkpt lat="43.00839" lon="1.14408">
        <ele>482</ele>
        <time>2013-06-08T08:31:25.000Z</time>
      </trkpt>
      <trkpt lat="43.00838" lon="1.14375">
        <ele>476</ele>
        <time>2013-06-08T08:31:43.000Z</time>
      </trkpt>
      <trkpt lat="43.00839" lon="1.14363">
        <ele>475</ele>
        <time>2013-06-08T08:31:50.000Z</time>
      </trkpt>
      <trkpt lat="43.00842" lon="1.14349">
        <ele>474</ele>
        <time>2013-06-08T08:32:01.000Z</time>
      </trkpt>
      <trkpt lat="43.00839" lon="1.14321">
        <ele>473</ele>
        <time>2013-06-08T08:32:19.000Z</time>
      </trkpt>
      <trkpt lat="43.00839" lon="1.1431">
        <ele>471</ele>
        <time>2013-06-08T08:32:27.000Z</time>
      </trkpt>
      <trkpt lat="43.00837" lon="1.14301">
        <ele>469</ele>
        <time>2013-06-08T08:32:33.000Z</time>
      </trkpt>
      <trkpt lat="43.00837" lon="1.14288">
        <ele>466</ele>
        <time>2013-06-08T08:32:39.000Z</time>
      </trkpt>
      <trkpt lat="43.00833" lon="1.1428">
        <ele>462</ele>
        <time>2013-06-08T08:32:45.000Z</time>
      </trkpt>
      <trkpt lat="43.00812" lon="1.14242">
        <ele>461</ele>
        <time>2013-06-08T08:33:14.000Z</time>
      </trkpt>
      <trkpt lat="43.00808" lon="1.14236">
        <ele>460</ele>
        <time>2013-06-08T08:33:22.000Z</time>
      </trkpt>
      <trkpt lat="43.00802" lon="1.14231">
        <ele>462</ele>
        <time>2013-06-08T08:33:50.000Z</time>
      </trkpt>
      <trkpt lat="43.00797" lon="1.14228">
        <ele>464</ele>
        <time>2013-06-08T08:34:01.000Z</time>
      </trkpt>
      <trkpt lat="43.00777" lon="1.14207">
        <ele>459</ele>
        <time>2013-06-08T08:34:27.000Z</time>
      </trkpt>
      <trkpt lat="43.00742" lon="1.14168">
        <ele>449</ele>
        <time>2013-06-08T08:35:07.000Z</time>
      </trkpt>
      <trkpt lat="43.00742" lon="1.14167">
        <ele>449</ele>
        <time>2013-06-08T08:35:08.000Z</time>
      </trkpt>
      <trkpt lat="43.00705" lon="1.14129">
        <ele>452</ele>
        <time>2013-06-08T08:35:36.000Z</time>
      </trkpt>
      <trkpt lat="43.00703" lon="1.14128">
        <ele>452</ele>
        <time>2013-06-08T08:35:37.000Z</time>
      </trkpt>
      <trkpt lat="43.00695" lon="1.14121">
        <ele>452</ele>
        <time>2013-06-08T08:35:45.000Z</time>
      </trkpt>
      <trkpt lat="43.00689" lon="1.14116">
        <ele>450</ele>
        <time>2013-06-08T08:35:53.000Z</time>
      </trkpt>
      <trkpt lat="43.00684" lon="1.14106">
        <ele>449</ele>
        <time>2013-06-08T08:36:01.000Z</time>
      </trkpt>
      <trkpt lat="43.00671" lon="1.14088">
        <ele>447</ele>
        <time>2013-06-08T08:36:16.000Z</time>
      </trkpt>
      <trkpt lat="43.00664" lon="1.14078">
        <ele>446</ele>
        <time>2013-06-08T08:36:26.000Z</time>
      </trkpt>
      <trkpt lat="43.00645" lon="1.14045">
        <ele>447</ele>
        <time>2013-06-08T08:36:45.000Z</time>
      </trkpt>
      <trkpt lat="43.00642" lon="1.14039">
        <ele>448</ele>
        <time>2013-06-08T08:36:49.000Z</time>
      </trkpt>
      <trkpt lat="43.00612" lon="1.13991">
        <ele>445</ele>
        <time>2013-06-08T08:37:17.000Z</time>
      </trkpt>
      <trkpt lat="43.00612" lon="1.1399">
        <ele>445</ele>
        <time>2013-06-08T08:37:18.000Z</time>
      </trkpt>
      <trkpt lat="43.00597" lon="1.13969">
        <ele>445</ele>
        <time>2013-06-08T08:37:31.000Z</time>
      </trkpt>
      <trkpt lat="43.00575" lon="1.13934">
        <ele>439</ele>
        <time>2013-06-08T08:37:59.000Z</time>
      </trkpt>
      <trkpt lat="43.00569" lon="1.13918">
        <ele>441</ele>
        <time>2013-06-08T08:38:09.000Z</time>
      </trkpt>
      <trkpt lat="43.00567" lon="1.13911">
        <ele>442</ele>
        <time>2013-06-08T08:38:14.000Z</time>
      </trkpt>
      <trkpt lat="43.00556" lon="1.13895">
        <ele>442</ele>
        <time>2013-06-08T08:38:30.000Z</time>
      </trkpt>
      <trkpt lat="43.0055" lon="1.13888">
        <ele>439</ele>
        <time>2013-06-08T08:38:37.000Z</time>
      </trkpt>
      <trkpt lat="43.00545" lon="1.13883">
        <ele>437</ele>
        <time>2013-06-08T08:38:43.000Z</time>
      </trkpt>
      <trkpt lat="43.00542" lon="1.13876">
        <ele>438</ele>
        <time>2013-06-08T08:38:47.000Z</time>
      </trkpt>
      <trkpt lat="43.00537" lon="1.13863">
        <ele>443</ele>
        <time>2013-06-08T08:38:55.000Z</time>
      </trkpt>
      <trkpt lat="43.00535" lon="1.13855">
        <ele>449</ele>
        <time>2013-06-08T08:39:00.000Z</time>
      </trkpt>
      <trkpt lat="43.00526" lon="1.13842">
        <ele>454</ele>
        <time>2013-06-08T08:39:12.000Z</time>
      </trkpt>
      <trkpt lat="43.00518" lon="1.13835">
        <ele>455</ele>
        <time>2013-06-08T08:39:20.000Z</time>
      </trkpt>
      <trkpt lat="43.00512" lon="1.13827">
        <ele>455</ele>
        <time>2013-06-08T08:39:26.000Z</time>
      </trkpt>
      <trkpt lat="43.00476" lon="1.1379">
        <ele>453</ele>
        <time>2013-06-08T08:39:56.000Z</time>
      </trkpt>
      <trkpt lat="43.00475" lon="1.13788">
        <ele>453</ele>
        <time>2013-06-08T08:39:57.000Z</time>
      </trkpt>
      <trkpt lat="43.00443" lon="1.13745">
        <ele>449</ele>
        <time>2013-06-08T08:40:27.000Z</time>
      </trkpt>
      <trkpt lat="43.00441" lon="1.13743">
        <ele>449</ele>
        <time>2013-06-08T08:40:28.000Z</time>
      </trkpt>
      <trkpt lat="43.00437" lon="1.13737">
        <ele>448</ele>
        <time>2013-06-08T08:40:34.000Z</time>
      </trkpt>
      <trkpt lat="43.00433" lon="1.13728">
        <ele>448</ele>
        <time>2013-06-08T08:40:40.000Z</time>
      </trkpt>
      <trkpt lat="43.00424" lon="1.13715">
        <ele>448</ele>
        <time>2013-06-08T08:40:48.000Z</time>
      </trkpt>
      <trkpt lat="43.00414" lon="1.13695">
        <ele>447</ele>
        <time>2013-06-08T08:41:01.000Z</time>
      </trkpt>
      <trkpt lat="43.0041" lon="1.13687">
        <ele>447</ele>
        <time>2013-06-08T08:41:06.000Z</time>
      </trkpt>
      <trkpt lat="43.00403" lon="1.13673">
        <ele>446</ele>
        <time>2013-06-08T08:41:16.000Z</time>
      </trkpt>
      <trkpt lat="43.00397" lon="1.13662">
        <ele>444</ele>
        <time>2013-06-08T08:41:24.000Z</time>
      </trkpt>
      <trkpt lat="43.00394" lon="1.13656">
        <ele>443</ele>
        <time>2013-06-08T08:41:28.000Z</time>
      </trkpt>
      <trkpt lat="43.00386" lon="1.1365">
        <ele>441</ele>
        <time>2013-06-08T08:41:35.000Z</time>
      </trkpt>
      <trkpt lat="43.0037" lon="1.13647">
        <ele>442</ele>
        <time>2013-06-08T08:41:49.000Z</time>
      </trkpt>
      <trkpt lat="43.00367" lon="1.1364">
        <ele>445</ele>
        <time>2013-06-08T08:41:53.000Z</time>
      </trkpt>
      <trkpt lat="43.00356" lon="1.13613">
        <ele>449</ele>
        <time>2013-06-08T08:42:11.000Z</time>
      </trkpt>
      <trkpt lat="43.00347" lon="1.13598">
        <ele>444</ele>
        <time>2013-06-08T08:42:19.000Z</time>
      </trkpt>
      <trkpt lat="43.00344" lon="1.1359">
        <ele>443</ele>
        <time>2013-06-08T08:42:26.000Z</time>
      </trkpt>
      <trkpt lat="43.00346" lon="1.13582">
        <ele>441</ele>
        <time>2013-06-08T08:42:35.000Z</time>
      </trkpt>
      <trkpt lat="43.00354" lon="1.13562">
        <ele>440</ele>
        <time>2013-06-08T08:42:53.000Z</time>
      </trkpt>
      <trkpt lat="43.00352" lon="1.13572">
        <ele>443</ele>
        <time>2013-06-08T08:42:58.000Z</time>
      </trkpt>
      <trkpt lat="43.00349" lon="1.13579">
        <ele>449</ele>
        <time>2013-06-08T08:43:03.000Z</time>
      </trkpt>
      <trkpt lat="43.0033" lon="1.13571">
        <ele>450</ele>
        <time>2013-06-08T08:43:18.000Z</time>
      </trkpt>
      <trkpt lat="43.00322" lon="1.13572">
        <ele>451</ele>
        <time>2013-06-08T08:43:22.000Z</time>
      </trkpt>
      <trkpt lat="43.00312" lon="1.13567">
        <ele>454</ele>
        <time>2013-06-08T08:43:34.000Z</time>
      </trkpt>
      <trkpt lat="43.00301" lon="1.13566">
        <ele>449</ele>
        <time>2013-06-08T08:43:42.000Z</time>
      </trkpt>
      <trkpt lat="43.00295" lon="1.1357">
        <ele>450</ele>
        <time>2013-06-08T08:43:45.000Z</time>
      </trkpt>
      <trkpt lat="43.00288" lon="1.13569">
        <ele>450</ele>
        <time>2013-06-08T08:43:48.000Z</time>
      </trkpt>
      <trkpt lat="43.00281" lon="1.13569">
        <ele>450</ele>
        <time>2013-06-08T08:43:53.000Z</time>
      </trkpt>
      <trkpt lat="43.00249" lon="1.13588">
        <ele>443</ele>
        <time>2013-06-08T08:44:15.000Z</time>
      </trkpt>
      <trkpt lat="43.00243" lon="1.13585">
        <ele>433</ele>
        <time>2013-06-08T08:44:20.000Z</time>
      </trkpt>
      <trkpt lat="43.00243" lon="1.13585">
        <ele>438</ele>
        <time>2013-06-08T08:44:31.000Z</time>
      </trkpt>
      <trkpt lat="43.00236" lon="1.13583">
        <ele>456</ele>
        <time>2013-06-08T08:44:33.000Z</time>
      </trkpt>
      <trkpt lat="43.00231" lon="1.13573">
        <ele>452</ele>
        <time>2013-06-08T08:44:35.000Z</time>
      </trkpt>
      <trkpt lat="43.00231" lon="1.1358">
        <ele>449</ele>
        <time>2013-06-08T08:44:38.000Z</time>
      </trkpt>
      <trkpt lat="43.0023" lon="1.13595">
        <ele>456</ele>
        <time>2013-06-08T08:44:47.000Z</time>
      </trkpt>
      <trkpt lat="43.00228" lon="1.13607">
        <ele>458</ele>
        <time>2013-06-08T08:44:56.000Z</time>
      </trkpt>
      <trkpt lat="43.00221" lon="1.13625">
        <ele>436</ele>
        <time>2013-06-08T08:45:08.000Z</time>
      </trkpt>
      <trkpt lat="43.00218" lon="1.13633">
        <ele>451</ele>
        <time>2013-06-08T08:45:15.000Z</time>
      </trkpt>
      <trkpt lat="43.00206" lon="1.13639">
        <ele>442</ele>
        <time>2013-06-08T08:45:17.000Z</time>
      </trkpt>
      <trkpt lat="43.00199" lon="1.13687">
        <ele>479</ele>
        <time>2013-06-08T08:45:46.000Z</time>
      </trkpt>
      <trkpt lat="43.00198" lon="1.13703">
        <ele>470</ele>
        <time>2013-06-08T08:45:47.000Z</time>
      </trkpt>
      <trkpt lat="43.00197" lon="1.13714">
        <ele>465</ele>
        <time>2013-06-08T08:45:54.000Z</time>
      </trkpt>
      <trkpt lat="43.00196" lon="1.13721">
        <ele>461</ele>
        <time>2013-06-08T08:46:00.000Z</time>
      </trkpt>
      <trkpt lat="43.00193" lon="1.13729">
        <ele>456</ele>
        <time>2013-06-08T08:46:09.000Z</time>
      </trkpt>
      <trkpt lat="43.00188" lon="1.13738">
        <ele>459</ele>
        <time>2013-06-08T08:46:13.000Z</time>
      </trkpt>
      <trkpt lat="43.00182" lon="1.13743">
        <ele>443</ele>
        <time>2013-06-08T08:46:23.000Z</time>
      </trkpt>
      <trkpt lat="43.00179" lon="1.1375">
        <ele>444</ele>
        <time>2013-06-08T08:46:37.000Z</time>
      </trkpt>
      <trkpt lat="43.00176" lon="1.13758">
        <ele>442</ele>
        <time>2013-06-08T08:46:44.000Z</time>
      </trkpt>
      <trkpt lat="43.00173" lon="1.13766">
        <ele>435</ele>
        <time>2013-06-08T08:46:57.000Z</time>
      </trkpt>
      <trkpt lat="43.00173" lon="1.13774">
        <ele>433</ele>
        <time>2013-06-08T08:47:03.000Z</time>
      </trkpt>
    </trkseg>
  </trk>
</gpx>